Time;durP1;ratioP1;P1;durP2;ratioP2;P2;SDS_P1;SDS_P2;PMS_P1;PMS_P2;Temp;Humidity;BMP_temperature;BMP_pressure;BME280_temperature;BME280_humidity;BME280_pressure;Samples;Min_cycle;Max_cycle;Signal;HPM_P1;HPM_P2
2023/01/28 00:02:19;;;;;;;1999.90;999.90;;;7.40;99.90;;;;;;4954998;29;20106;-83
2023/01/28 00:04:45;;;;;;;1999.90;999.90;;;8.00;99.90;;;;;;4954487;28;20053;-83
2023/01/28 00:07:11;;;;;;;1999.90;999.90;;;8.50;99.90;;;;;;4936529;28;20055;-84
2023/01/28 00:09:38;;;;;;;1999.90;999.90;;;9.00;99.90;;;;;;4954255;29;20085;-83
2023/01/28 00:12:04;;;;;;;1999.90;999.90;;;9.10;99.90;;;;;;4927621;29;20512;-83
2023/01/28 00:14:30;;;;;;;1999.90;999.90;;;6.80;99.90;;;;;;4938790;29;20051;-83
2023/01/28 00:16:56;;;;;;;1999.90;999.90;;;9.00;99.90;;;;;;4954577;29;20500;-83
2023/01/28 00:19:22;;;;;;;1999.90;999.90;;;7.90;99.90;;;;;;4936331;29;20050;-83
2023/01/28 00:21:47;;;;;;;1999.90;999.90;;;8.40;99.90;;;;;;4938734;29;20122;-84
2023/01/28 00:24:14;;;;;;;1999.90;999.90;;;7.30;99.90;;;;;;4929171;29;20127;-83
2023/01/28 00:26:40;;;;;;;1999.90;999.90;;;7.10;99.90;;;;;;4934873;29;20118;-83
2023/01/28 00:29:05;;;;;;;1999.90;999.90;;;6.90;99.90;;;;;;4937458;29;20047;-84
2023/01/28 00:31:33;;;;;;;1999.90;999.90;;;8.00;99.90;;;;;;4938536;29;20051;-84
2023/01/28 00:33:59;;;;;;;1999.90;999.90;;;8.40;99.90;;;;;;4938033;28;20047;-88
2023/01/28 00:36:25;;;;;;;1999.90;999.90;;;8.30;99.90;;;;;;4934500;29;20058;-83
2023/01/28 00:38:57;;;;;;;1999.90;999.90;;;8.30;99.90;;;;;;4951234;28;20118;-83
2023/01/28 00:41:27;;;;;;;1999.90;999.90;;;8.30;99.90;;;;;;4939586;29;20048;-83
2023/01/28 00:43:53;;;;;;;1999.90;999.90;;;8.30;99.90;;;;;;4956042;29;20039;-83
2023/01/28 00:46:21;;;;;;;1999.90;999.90;;;5.40;99.90;;;;;;4938099;29;20094;-83
2023/01/28 00:48:47;;;;;;;1999.90;999.90;;;8.20;99.90;;;;;;4950224;29;20052;-83
2023/01/28 00:51:16;;;;;;;1999.90;999.90;;;8.70;99.90;;;;;;4954899;29;20481;-83
2023/01/28 00:53:43;;;;;;;1999.90;999.90;;;8.20;99.90;;;;;;4951466;28;20075;-84
2023/01/28 00:56:12;;;;;;;1999.90;999.90;;;8.70;99.90;;;;;;4948242;28;20252;-83
2023/01/28 00:58:38;;;;;;;1999.90;999.90;;;8.10;99.90;;;;;;4925810;29;20138;-84
2023/01/28 01:01:08;;;;;;;1999.90;999.90;;;7.60;99.90;;;;;;4948204;28;20074;-93
2023/01/28 01:03:33;;;;;;;1999.90;999.90;;;8.20;99.90;;;;;;4913542;29;20099;-83
2023/01/28 01:05:59;;;;;;;1999.90;999.90;;;8.50;99.90;;;;;;4952215;28;20039;-83
2023/01/28 01:08:33;;;;;;;1999.90;999.90;;;8.20;99.90;;;;;;4952159;29;20062;-83
2023/01/28 01:11:03;;;;;;;1999.90;999.90;;;8.10;99.90;;;;;;4952915;28;20066;-84
2023/01/28 01:13:31;;;;;;;1999.90;999.90;;;8.10;99.90;;;;;;4936533;29;20098;-83
2023/01/28 01:16:02;;;;;;;1999.90;999.90;;;9.00;99.90;;;;;;4920926;28;20608;-84
2023/01/28 01:18:28;;;;;;;1999.90;999.90;;;8.20;99.90;;;;;;4948278;29;20052;-84
2023/01/28 01:20:57;;;;;;;1999.90;999.90;;;8.50;99.90;;;;;;4938121;29;20052;-85
2023/01/28 01:23:32;;;;;;;1999.90;999.90;;;8.00;99.90;;;;;;4953954;28;20105;-82
2023/01/28 01:25:58;;;;;;;1999.90;999.90;;;8.70;99.90;;;;;;4951010;28;20132;-83
2023/01/28 01:28:24;;;;;;;1999.90;999.90;;;8.80;99.90;;;;;;4954539;29;20047;-83
2023/01/28 01:30:49;;;;;;;1999.90;999.90;;;8.20;99.90;;;;;;4933265;29;20054;-83
2023/01/28 01:33:15;;;;;;;1999.90;999.90;;;7.90;99.90;;;;;;4943213;29;20047;-84
2023/01/28 01:35:41;;;;;;;1999.90;999.90;;;8.10;99.90;;;;;;4954627;29;20050;-85
2023/01/28 01:38:07;;;;;;;1999.90;999.90;;;9.70;99.90;;;;;;4940684;28;20150;-82
2023/01/28 01:40:33;;;;;;;1999.90;999.90;;;8.50;99.90;;;;;;4935152;29;20044;-83
2023/01/28 01:42:58;;;;;;;1999.90;999.90;;;6.80;99.90;;;;;;4936876;29;20392;-83
2023/01/28 01:45:25;;;;;;;1999.90;999.90;;;8.50;99.90;;;;;;4961054;28;20050;-83
2023/01/28 01:48:18;;;;;;;1999.90;999.90;;;8.50;99.90;;;;;;4952450;28;20039;-82
2023/01/28 01:51:05;;;;;;;1999.90;999.90;;;8.70;99.90;;;;;;4943890;29;20147;-83
2023/01/28 01:53:31;;;;;;;1999.90;999.90;;;8.10;99.90;;;;;;4937109;29;20066;-83
2023/01/28 01:56:01;;;;;;;1999.90;999.90;;;9.10;99.90;;;;;;4951296;29;20051;-83
2023/01/28 01:58:32;;;;;;;1999.90;999.90;;;8.10;99.90;;;;;;4951485;28;20051;-83
2023/01/28 02:00:58;;;;;;;1999.90;999.90;;;8.10;99.90;;;;;;4951697;28;20055;-84
2023/01/28 02:03:37;;;;;;;1999.90;999.90;;;7.70;99.90;;;;;;4953781;29;20054;-85
2023/01/28 02:06:03;;;;;;;;;;;8.10;99.90;;;;;;4936468;29;20110;-84
2023/01/28 02:08:28;;;;;;;1999.90;999.90;;;8.70;99.90;;;;;;4950447;28;19926;-83
2023/01/28 02:11:04;;;;;;;1999.90;999.90;;;9.80;99.90;;;;;;4945598;28;20090;-83
2023/01/28 02:13:33;;;;;;;1999.90;999.90;;;8.10;99.90;;;;;;4946411;28;20055;-84
2023/01/28 02:16:01;;;;;;;1999.90;999.90;;;6.50;99.90;;;;;;4947109;28;20066;-83
2023/01/28 02:18:27;;;;;;;1999.90;999.90;;;8.10;99.90;;;;;;4934481;29;20133;-84
2023/01/28 02:21:23;;;;;;;1999.90;999.90;;;8.50;99.90;;;;;;4942294;28;20454;-85
2023/01/28 02:24:27;;;;;;;1999.90;999.90;;;7.80;99.90;;;;;;4949734;28;20052;-83
2023/01/28 02:27:15;;;;;;;1999.90;999.90;;;8.10;99.90;;;;;;4925211;28;20051;-84
2023/01/28 02:29:55;;;;;;;1999.90;999.90;;;7.90;99.90;;;;;;4948341;28;20043;-83
2023/01/28 02:32:29;;;;;;;1999.90;999.90;;;9.20;99.90;;;;;;4941665;28;20489;-84
2023/01/28 02:35:10;;;;;;;1999.90;999.90;;;9.40;99.90;;;;;;4947122;29;20102;-83
2023/01/28 02:37:59;;;;;;;1999.90;999.90;;;8.10;99.90;;;;;;4932053;29;20062;-84
2023/01/28 02:40:29;;;;;;;1999.90;999.90;;;8.10;99.90;;;;;;4937750;28;20123;-84
2023/01/28 02:42:56;;;;;;;1999.90;999.90;;;8.10;99.90;;;;;;4926782;28;20524;-83
2023/01/28 02:48:15;;;;;;;1999.90;999.90;;;8.10;99.90;;;;;;4948477;28;20066;-88
2023/01/28 02:51:23;;;;;;;1999.90;999.90;;;9.10;99.90;;;;;;4948898;28;20051;-84
2023/01/28 02:54:02;;;;;;;1999.90;999.90;;;7.00;99.90;;;;;;4922241;28;20480;-84
2023/01/28 02:56:37;;;;;;;1999.90;999.90;;;8.10;99.90;;;;;;4939784;29;20044;-83
2023/01/28 02:59:33;;;;;;;1999.90;999.90;;;9.90;99.90;;;;;;4940437;28;20046;-83
2023/01/28 03:02:28;;;;;;;1999.90;999.90;;;7.30;99.90;;;;;;4940561;28;20385;-83
2023/01/28 03:05:19;;;;;;;1999.90;999.90;;;8.10;99.90;;;;;;4951902;28;20054;-83
2023/01/28 03:07:45;;;;;;;1999.90;999.90;;;9.10;99.90;;;;;;4931884;28;20512;-83
2023/01/28 03:10:16;;;;;;;1999.90;999.90;;;8.80;99.90;;;;;;4945123;28;20059;-84
2023/01/28 03:38:47;;;;;;;1999.90;999.90;;;9.50;99.90;;;;;;4936687;28;20114;-84
2023/01/28 03:41:20;;;;;;;1999.90;999.90;;;8.00;99.90;;;;;;4951148;28;20055;-83
2023/01/28 03:43:47;;;;;;;1999.90;999.90;;;7.60;99.90;;;;;;4955471;28;20051;-84
2023/01/28 03:46:13;;;;;;;1999.90;999.90;;;8.30;99.90;;;;;;4952890;28;20051;-83
2023/01/28 03:48:39;;;;;;;1999.90;999.90;;;9.40;99.90;;;;;;4953606;28;20527;-84
2023/01/28 03:51:05;;;;;;;1999.90;999.90;;;8.10;99.90;;;;;;4950828;28;20571;-89
2023/01/28 03:53:30;;;;;;;1999.90;999.90;;;8.80;99.90;;;;;;4955118;28;20055;-84
2023/01/28 03:55:56;;;;;;;1999.90;999.90;;;6.70;99.90;;;;;;4955040;28;20047;-83
2023/01/28 03:58:45;;;;;;;1999.90;999.90;;;8.00;99.90;;;;;;4954339;28;20051;-83
2023/01/28 04:01:11;;;;;;;1999.90;999.90;;;8.80;99.90;;;;;;4951016;28;20090;-84
2023/01/28 04:03:38;;;;;;;1999.90;999.90;;;8.40;99.90;;;;;;4953963;28;20579;-84
2023/01/28 04:06:07;;;;;;;1999.90;999.90;;;8.70;99.90;;;;;;4948087;28;20074;-83
2023/01/28 04:08:33;;;;;;;1999.90;999.90;;;8.20;99.90;;;;;;4953770;28;20317;-84
2023/01/28 04:11:14;;;;;;;1999.90;999.90;;;8.70;99.90;;;;;;4953638;28;20134;-83
2023/01/28 04:13:41;;;;;;;1999.90;999.90;;;9.20;99.90;;;;;;4950509;28;20437;-84
2023/01/28 04:16:07;;;;;;;1999.90;999.90;;;8.40;99.90;;;;;;4951990;28;20047;-84
2023/01/28 04:18:33;;;;;;;1999.90;999.90;;;9.30;99.90;;;;;;4955675;28;20043;-83
2023/01/28 04:20:59;;;;;;;1999.90;999.90;;;9.00;99.90;;;;;;4952855;28;20499;-85
2023/01/28 04:23:25;;;;;;;1999.90;999.90;;;7.60;99.90;;;;;;4951004;29;20113;-85
2023/01/28 04:25:51;;;;;;;1999.90;999.90;;;7.90;99.90;;;;;;4936549;29;20050;-85
2023/01/28 04:28:17;;;;;;;1999.90;999.90;;;8.40;99.90;;;;;;4937845;29;20062;-84
2023/01/28 04:30:43;;;;;;;1999.90;999.90;;;7.50;99.90;;;;;;4936300;29;20050;-84
2023/01/28 04:33:10;;;;;;;1999.90;999.90;;;8.00;99.90;;;;;;4948664;28;20051;-84
2023/01/28 04:35:35;;;;;;;1999.90;999.90;;;8.60;99.90;;;;;;4955853;28;20043;-84
2023/01/28 04:38:01;;;;;;;1999.90;999.90;;;;;;;;;;4937372;29;20477;-84
2023/01/28 04:40:27;;;;;;;1999.90;999.90;;;9.00;99.90;;;;;;4950694;29;20198;-84
2023/01/28 04:42:54;;;;;;;1999.90;999.90;;;7.50;99.90;;;;;;4953645;28;20126;-84
2023/01/28 04:45:20;;;;;;;1999.90;999.90;;;8.50;99.90;;;;;;4951810;28;20101;-84
2023/01/28 04:47:46;;;;;;;1999.90;999.90;;;8.90;99.90;;;;;;4953635;28;20139;-84
2023/01/28 04:50:11;;;;;;;1999.90;999.90;;;10.10;99.90;;;;;;4955221;29;20126;-84
2023/01/28 04:52:37;;;;;;;1999.90;999.90;;;7.90;99.90;;;;;;4954516;29;20102;-84
2023/01/28 04:55:03;;;;;;;1999.90;999.90;;;8.00;99.90;;;;;;4935214;29;20057;-84
2023/01/28 04:57:29;;;;;;;1999.90;999.90;;;8.10;99.90;;;;;;4937755;29;20090;-83
2023/01/28 04:59:55;;;;;;;1999.90;999.90;;;6.80;99.90;;;;;;4954912;29;20071;-84
2023/01/28 05:02:20;;;;;;;1999.90;999.90;;;9.50;99.90;;;;;;4953048;28;20054;-84
2023/01/28 05:04:46;;;;;;;1999.90;999.90;;;9.20;99.90;;;;;;4953094;29;20415;-84
2023/01/28 05:07:12;;;;;;;1999.90;999.90;;;8.70;99.90;;;;;;4937934;29;20059;-85
2023/01/28 05:09:38;;;;;;;1999.90;999.90;;;8.10;99.90;;;;;;4936247;29;20059;-85
2023/01/28 05:12:03;;;;;;;1999.90;999.90;;;9.20;99.90;;;;;;4936534;29;20395;-84
2023/01/28 05:14:29;;;;;;;1999.90;999.90;;;;;;;;;;4936753;29;20050;-91
2023/01/28 05:16:55;;;;;;;1999.90;999.90;;;7.90;99.90;;;;;;4920147;29;20039;-83
2023/01/28 05:19:21;;;;;;;1999.90;999.90;;;7.90;99.90;;;;;;4953330;28;20043;-84
2023/01/28 05:21:46;;;;;;;1999.90;999.90;;;6.60;99.90;;;;;;4932021;29;20404;-84
2023/01/28 05:24:13;;;;;;;1999.90;999.90;;;9.70;99.90;;;;;;4953079;28;20047;-84
2023/01/28 05:26:38;;;;;;;1999.90;999.90;;;7.60;99.90;;;;;;4936399;29;20058;-84
2023/01/28 05:29:04;;;;;;;1999.90;999.90;;;7.90;99.90;;;;;;4948610;28;20043;-84
2023/01/28 05:31:30;;;;;;;1999.90;999.90;;;7.60;99.90;;;;;;4950216;28;20108;-85
2023/01/28 05:33:56;;;;;;;1999.90;999.90;;;;;;;;;;4943560;29;20183;-85
2023/01/28 05:36:22;;;;;;;1999.90;999.90;;;7.90;99.90;;;;;;4935660;28;20134;-85
2023/01/28 05:38:47;;;;;;;1999.90;999.90;;;8.10;99.90;;;;;;4952351;28;20195;-85
2023/01/28 05:41:13;;;;;;;1999.90;999.90;;;8.70;99.90;;;;;;4937250;29;20047;-84
2023/01/28 05:43:38;;;;;;;1999.90;999.90;;;8.20;99.90;;;;;;4954343;28;20051;-85
2023/01/28 05:46:04;;;;;;;1999.90;999.90;;;7.90;99.90;;;;;;4933940;28;20131;-85
2023/01/28 05:48:30;;;;;;;1999.90;999.90;;;7.90;99.90;;;;;;4954110;28;20090;-84
2023/01/28 05:50:56;;;;;;;1999.90;999.90;;;7.50;99.90;;;;;;4918936;29;20035;-84
2023/01/28 05:53:22;;;;;;;1999.90;999.90;;;7.90;99.90;;;;;;4952368;29;20051;-85
2023/01/28 05:55:49;;;;;;;1999.90;999.90;;;8.30;99.90;;;;;;4939714;29;20086;-85
2023/01/28 05:58:15;;;;;;;1999.90;999.90;;;8.50;99.90;;;;;;4923517;29;20071;-85
2023/01/28 06:00:40;;;;;;;1999.90;999.90;;;9.10;99.90;;;;;;4920821;29;20047;-84
2023/01/28 06:03:06;;;;;;;1999.90;999.90;;;8.00;99.90;;;;;;4930835;28;20050;-85
2023/01/28 06:05:32;;;;;;;1999.90;999.90;;;8.80;99.90;;;;;;4958762;28;20405;-84
2023/01/28 06:07:57;;;;;;;1999.90;999.90;;;9.00;99.90;;;;;;4943206;29;20518;-85
2023/01/28 06:10:23;;;;;;;1999.90;999.90;;;9.20;99.90;;;;;;4954746;28;20107;-85
2023/01/28 06:12:49;;;;;;;1999.90;999.90;;;6.40;99.90;;;;;;4954892;28;20047;-85
2023/01/28 06:15:14;;;;;;;1999.90;999.90;;;7.90;99.90;;;;;;4953888;29;20047;-85
2023/01/28 06:17:40;;;;;;;1999.90;999.90;;;9.60;99.90;;;;;;4935761;29;20071;-84
2023/01/28 06:20:07;;;;;;;1999.90;999.90;;;10.00;99.90;;;;;;4951960;29;20451;-84
2023/01/28 06:22:33;;;;;;;1999.90;999.90;;;7.90;99.90;;;;;;4950982;28;20480;-84
2023/01/28 06:24:59;;;;;;;1999.90;999.90;;;8.00;99.90;;;;;;4954728;29;20043;-84
2023/01/28 06:27:24;;;;;;;1999.90;999.90;;;8.20;99.90;;;;;;4954137;29;20488;-84
2023/01/28 06:29:50;;;;;;;1999.90;999.90;;;8.80;99.90;;;;;;4936744;29;20401;-83
2023/01/28 06:32:16;;;;;;;1999.90;999.90;;;8.00;99.90;;;;;;4931115;28;20089;-83
2023/01/28 06:34:41;;;;;;;1999.90;999.90;;;7.80;99.90;;;;;;4931783;29;20075;-83
2023/01/28 06:37:07;;;;;;;1999.90;999.90;;;7.90;99.90;;;;;;4935420;29;20444;-83
2023/01/28 06:39:33;;;;;;;1999.90;999.90;;;8.70;99.90;;;;;;4946670;29;20035;-84
2023/01/28 06:41:59;;;;;;;1999.90;999.90;;;7.20;99.90;;;;;;4933613;29;20078;-83
2023/01/28 06:44:25;;;;;;;1999.90;999.90;;;7.80;99.90;;;;;;4950523;29;20074;-84
2023/01/28 06:46:51;;;;;;;1999.90;999.90;;;8.30;99.90;;;;;;4953368;29;20509;-84
2023/01/28 06:49:16;;;;;;;1999.90;999.90;;;8.00;99.90;;;;;;4950238;29;20130;-84
2023/01/28 06:51:42;;;;;;;1999.90;999.90;;;8.30;99.90;;;;;;4951294;29;20047;-84
2023/01/28 06:54:08;;;;;;;1999.90;999.90;;;6.00;99.90;;;;;;4951722;28;20094;-84
2023/01/28 06:56:33;;;;;;;1999.90;999.90;;;8.30;99.90;;;;;;4951144;29;20416;-84
2023/01/28 06:58:59;;;;;;;1999.90;999.90;;;7.90;99.90;;;;;;4936729;29;20043;-86
2023/01/28 07:01:25;;;;;;;1999.90;999.90;;;7.90;99.90;;;;;;4954536;29;20055;-84
2023/01/28 07:03:50;;;;;;;1999.90;999.90;;;8.00;99.90;;;;;;4937703;29;20134;-84
2023/01/28 07:06:16;;;;;;;1999.90;999.90;;;9.70;99.90;;;;;;4957005;29;20061;-84
2023/01/28 07:08:42;;;;;;;1999.90;999.90;;;7.90;99.90;;;;;;4952649;28;20054;-94
2023/01/28 07:11:07;;;;;;;1999.90;999.90;;;8.10;99.90;;;;;;4921888;29;20090;-83
2023/01/28 07:13:33;;;;;;;1999.90;999.90;;;7.90;99.90;;;;;;4954438;28;20054;-84
2023/01/28 07:15:59;;;;;;;1999.90;999.90;;;6.90;99.90;;;;;;4956118;28;20077;-84
2023/01/28 07:18:25;;;;;;;1999.90;999.90;;;8.80;99.90;;;;;;4954658;28;20551;-83
2023/01/28 07:20:51;;;;;;;1999.90;999.90;;;7.90;99.90;;;;;;4934957;29;20058;-84
2023/01/28 07:23:17;;;;;;;1999.90;999.90;;;8.80;99.90;;;;;;4955691;28;20044;-83
2023/01/28 07:25:43;;;;;;;1999.90;999.90;;;7.90;99.90;;;;;;4939415;29;20047;-84
2023/01/28 07:28:10;;;;;;;1999.90;999.90;;;7.90;99.90;;;;;;4933366;28;20074;-83
2023/01/28 07:30:35;;;;;;;1999.90;999.90;;;7.20;99.90;;;;;;4919658;29;20473;-84
2023/01/28 07:33:01;;;;;;;1999.90;999.90;;;9.70;99.90;;;;;;4956506;29;20058;-85
2023/01/28 07:35:27;;;;;;;1999.90;999.90;;;7.50;99.90;;;;;;4938704;29;20055;-82
2023/01/28 07:37:54;;;;;;;1999.90;999.90;;;9.10;99.90;;;;;;4937292;28;20061;-83
2023/01/28 07:40:20;;;;;;;1999.90;999.90;;;7.90;99.90;;;;;;4949878;28;20047;-84
2023/01/28 07:42:46;;;;;;;1999.90;999.90;;;7.80;99.90;;;;;;4954607;28;20378;-89
2023/01/28 07:45:12;;;;;;;1999.90;999.90;;;7.40;99.90;;;;;;4942703;28;20047;-87
2023/01/28 07:47:38;;;;;;;1999.90;999.90;;;8.00;99.90;;;;;;4946009;28;20043;-87
2023/01/28 07:50:04;;;;;;;1999.90;999.90;;;7.30;99.90;;;;;;4945010;28;20047;-84
2023/01/28 07:52:30;;;;;;;1999.90;999.90;;;7.10;99.90;;;;;;4932620;28;20051;-84
2023/01/28 07:54:55;;;;;;;1999.90;999.90;;;7.10;99.90;;;;;;4949462;28;20051;-83
2023/01/28 07:57:24;;;;;;;1999.90;999.90;;;7.20;99.90;;;;;;4954150;28;20051;-83
2023/01/28 07:59:50;;;;;;;1999.90;999.90;;;8.00;99.90;;;;;;4957338;28;20043;-84
2023/01/28 08:02:16;;;;;;;1999.90;999.90;;;7.30;99.90;;;;;;4952079;28;20050;-84
2023/01/28 08:04:42;;;;;;;1999.90;999.90;;;7.30;99.90;;;;;;4951008;28;20058;-83
2023/01/28 08:07:08;;;;;;;1999.90;999.90;;;7.60;99.90;;;;;;4953271;28;20066;-83
2023/01/28 08:09:34;;;;;;;1999.90;999.90;;;9.20;99.90;;;;;;4949096;28;20094;-84
2023/01/28 08:12:03;;;;;;;1999.90;999.90;;;7.20;99.90;;;;;;4932369;29;20058;-86
2023/01/28 08:14:29;;;;;;;1999.90;999.90;;;7.00;99.90;;;;;;4940220;29;20055;-83
2023/01/28 08:16:56;;;;;;;1999.90;999.90;;;8.50;99.90;;;;;;4944118;28;20048;-83
2023/01/28 08:19:21;;;;;;;1999.90;999.90;;;7.10;99.90;;;;;;4950360;28;20070;-83
2023/01/28 08:21:47;;;;;;;1999.90;999.90;;;6.60;99.90;;;;;;4933390;29;20082;-84
2023/01/28 08:24:13;;;;;;;1999.90;999.90;;;5.60;99.90;;;;;;4933130;28;20047;-83
2023/01/28 08:26:38;;;;;;;1999.90;999.90;;;7.10;99.90;;;;;;4953545;28;20107;-82
2023/01/28 08:29:04;;;;;;;1999.90;999.90;;;8.60;99.90;;;;;;4921563;29;20051;-88
2023/01/28 08:31:30;;;;;;;1999.90;999.90;;;7.00;99.90;;;;;;4954411;28;20058;-83
2023/01/28 08:33:56;;;;;;;1999.90;999.90;;;6.80;99.90;;;;;;4953880;28;20043;-84
2023/01/28 08:36:22;;;;;;;1999.90;999.90;;;7.90;99.90;;;;;;4939326;29;20089;-83
2023/01/28 08:38:53;;;;;;;1999.90;999.90;;;7.00;99.90;;;;;;4947355;29;20044;-85
2023/01/28 08:41:21;;;;;;;1999.90;999.90;;;6.90;99.90;;;;;;4955490;28;20047;-83
2023/01/28 08:43:47;;;;;;;;;;;7.30;99.90;;;;;;4919609;28;20601;-84
2023/01/28 08:46:12;;;;;;;1999.90;999.90;;;8.20;99.90;;;;;;4936975;29;19958;-83
2023/01/28 08:48:38;;;;;;;1999.90;999.90;;;7.70;99.90;;;;;;4937471;28;20480;-83
2023/01/28 08:51:04;;;;;;;1999.90;999.90;;;7.00;99.90;;;;;;4938568;29;20083;-83
2023/01/28 08:53:30;;;;;;;1999.90;999.90;;;7.00;99.90;;;;;;4942547;28;20046;-84
2023/01/28 08:55:55;;;;;;;1999.90;999.90;;;8.40;99.90;;;;;;4945576;28;20043;-91
2023/01/28 08:58:21;;;;;;;1999.90;999.90;;;8.40;99.90;;;;;;4954996;28;20233;-83
2023/01/28 09:00:48;;;;;;;1999.90;999.90;;;7.10;99.90;;;;;;4954870;28;20043;-83
2023/01/28 09:03:14;;;;;;;1999.90;999.90;;;6.90;99.90;;;;;;4955445;29;20151;-83
2023/01/28 09:05:39;;;;;;;1999.90;999.90;;;7.20;99.90;;;;;;4953214;28;20047;-84
2023/01/28 09:08:11;;;;;;;1999.90;999.90;;;7.90;99.90;;;;;;4937901;29;20492;-83
2023/01/28 09:10:37;;;;;;;1999.90;999.90;;;8.10;99.90;;;;;;4952006;28;20057;-83
2023/01/28 09:13:11;;;;;;;1999.90;999.90;;;10.80;99.90;;;;;;4936509;29;20196;-83
2023/01/28 09:15:37;;;;;;;1999.90;999.90;;;8.20;99.90;;;;;;4948730;28;20058;-83
2023/01/28 09:18:03;;;;;;;1999.90;999.90;;;8.30;99.90;;;;;;4949134;28;20039;-83
2023/01/28 09:20:31;;;;;;;1999.90;999.90;;;8.50;99.90;;;;;;4947510;28;20513;-83
2023/01/28 09:22:58;;;;;;;1999.90;999.90;;;8.60;99.90;;;;;;4954098;28;20055;-83
2023/01/28 09:25:23;;;;;;;1999.90;999.90;;;8.30;99.90;;;;;;4951095;28;20074;-83
2023/01/28 09:27:49;;;;;;;1999.90;999.90;;;8.30;99.90;;;;;;4937037;29;20480;-87
2023/01/28 09:30:15;;;;;;;1999.90;999.90;;;8.20;99.90;;;;;;4966457;28;20046;-83
2023/01/28 09:32:41;;;;;;;1999.90;999.90;;;6.70;99.90;;;;;;4959819;28;20126;-83
2023/01/28 09:35:07;;;;;;;1999.90;999.90;;;7.70;99.90;;;;;;4952400;28;20121;-84
2023/01/28 09:37:32;;;;;;;1999.90;999.90;;;7.30;99.90;;;;;;4947523;28;20188;-83
2023/01/28 09:39:58;;;;;;;1999.90;999.90;;;9.20;99.90;;;;;;4952234;28;20043;-83
2023/01/28 09:42:36;;;;;;;1999.90;999.90;;;8.10;99.90;;;;;;4955221;28;20460;-83
2023/01/28 09:45:23;;;;;;;1999.90;999.90;;;7.20;99.90;;;;;;4927970;29;20054;-83
2023/01/28 09:47:55;;;;;;;1999.90;999.90;;;8.10;99.90;;;;;;4949336;28;20054;-83
2023/01/28 09:50:37;;;;;;;1999.90;999.90;;;5.80;99.90;;;;;;4938097;29;20079;-82
2023/01/28 09:53:23;;;;;;;1999.90;999.90;;;8.50;99.90;;;;;;4961008;28;20051;-93
2023/01/28 09:55:55;;;;;;;1999.90;999.90;;;8.50;99.90;;;;;;4952054;29;20398;-82
2023/01/28 09:58:21;;;;;;;1999.90;999.90;;;7.90;99.90;;;;;;4936202;29;20134;-83
2023/01/28 10:01:01;;;;;;;1999.90;999.90;;;8.80;99.90;;;;;;4953189;29;20130;-83
2023/01/28 10:04:00;;;;;;;1999.90;999.90;;;9.10;99.90;;;;;;4953726;29;20051;-83
2023/01/28 10:07:07;;;;;;;1999.90;999.90;;;9.60;99.90;;;;;;4934498;28;20063;-84
2023/01/28 10:10:05;;;;;;;1999.90;999.90;;;10.10;99.90;;;;;;4936358;29;20202;-84
2023/01/28 10:12:42;;;;;;;1999.90;999.90;;;10.80;99.90;;;;;;4954002;28;20051;-83
2023/01/28 10:15:24;;;;;;;1999.90;999.90;;;10.80;99.90;;;;;;4935588;28;20097;-85
2023/01/28 10:17:53;;;;;;;1999.90;999.90;;;11.00;99.90;;;;;;4944169;28;20535;-88
2023/01/28 10:20:34;;;;;;;1999.90;999.90;;;11.90;99.90;;;;;;4948661;28;20062;-82
2023/01/28 10:23:25;;;;;;;1999.90;999.90;;;11.20;99.90;;;;;;4930031;29;20047;-86
2023/01/28 10:25:54;;;;;;;1999.90;999.90;;;10.20;99.90;;;;;;4923239;28;20434;-85
2023/01/28 10:28:29;;;;;;;1999.90;999.90;;;11.20;99.90;;;;;;4949228;28;20412;-85
2023/01/28 10:30:55;;;;;;;1999.90;999.90;;;11.30;99.90;;;;;;4954282;29;20051;-85
2023/01/28 10:33:27;;;;;;;1999.90;999.90;;;10.90;99.90;;;;;;4942581;29;20143;-91
2023/01/28 10:35:55;;;;;;;1999.90;999.90;;;10.10;99.90;;;;;;4940464;28;20150;-86
2023/01/28 10:38:22;;;;;;;;;;;10.00;99.90;;;;;;4947148;29;20059;-87
2023/01/28 10:40:48;;;;;;;1999.90;999.90;;;10.00;99.90;;;;;;4963698;29;20356;-90
2023/01/28 10:43:24;;;;;;;1999.90;956.47;;;10.30;99.90;;;;;;4968185;28;20074;-85
2023/01/28 10:46:06;;;;;;;1999.90;999.90;;;9.80;99.90;;;;;;4951438;29;20043;-84
2023/01/28 10:48:43;;;;;;;1999.90;999.90;;;9.50;99.90;;;;;;4960919;28;20046;-89
2023/01/28 10:51:09;;;;;;;1999.90;999.90;;;;;;;;;;4952805;29;20051;-85
2023/01/28 10:53:41;;;;;;;1999.90;999.90;;;9.30;99.90;;;;;;4926945;29;20043;-86
2023/01/28 10:56:15;;;;;;;1999.90;999.90;;;9.30;99.90;;;;;;4944039;28;20046;-85
2023/01/28 10:59:26;;;;;;;1999.90;999.90;;;9.20;99.90;;;;;;4944709;28;20079;-84
2023/01/28 11:01:58;;;;;;;1999.90;999.90;;;9.10;99.90;;;;;;4935308;29;20055;-84
2023/01/28 11:04:30;;;;;;;1999.90;999.90;;;10.10;99.90;;;;;;4933068;28;20061;-86
2023/01/28 11:07:04;;;;;;;1999.90;999.90;;;9.20;99.90;;;;;;4950560;28;20425;-89
2023/01/28 11:09:33;;;;;;;1999.90;999.90;;;9.20;99.90;;;;;;4950552;29;20063;-87
2023/01/28 11:12:18;;;;;;;1999.90;999.90;;;11.70;99.90;;;;;;4947733;28;20122;-85
2023/01/28 11:14:53;;;;;;;1999.90;999.90;;;9.60;99.90;;;;;;4952769;28;20091;-84
2023/01/28 11:17:23;;;;;;;1999.90;999.90;;;9.20;99.90;;;;;;4945212;29;20043;-83
2023/01/28 11:19:51;;;;;;;1999.90;999.90;;;9.90;99.90;;;;;;4931622;29;20054;-84
2023/01/28 11:22:23;;;;;;;;;;;9.80;99.90;;;;;;4943719;28;20047;-89
2023/01/28 11:24:49;;;;;;;1999.90;999.90;;;10.10;99.90;;;;;;4950373;28;19918;-84
2023/01/28 11:27:18;;;;;;;1999.90;999.90;;;10.30;99.90;;;;;;4932674;29;20047;-84
2023/01/28 11:29:44;;;;;;;1999.90;991.05;;;10.40;99.90;;;;;;4952283;28;20040;-86
2023/01/28 11:32:20;;;;;;;1999.90;999.90;;;10.50;99.90;;;;;;4949314;29;20146;-87
2023/01/28 11:34:51;;;;;;;1999.90;999.90;;;10.90;99.90;;;;;;4949486;28;20130;-86
2023/01/28 11:37:21;;;;;;;1999.90;999.90;;;10.90;99.90;;;;;;4950585;28;20304;-86
2023/01/28 11:39:47;;;;;;;1999.90;999.90;;;10.90;99.90;;;;;;4947555;28;20043;-85
2023/01/28 11:42:21;;;;;;;1999.90;893.35;;;11.00;99.90;;;;;;4933071;29;20130;-87
2023/01/28 11:44:47;;;;;;;1999.90;999.90;;;11.00;99.90;;;;;;4939012;28;20056;-87
2023/01/28 11:47:37;;;;;;;1999.90;999.90;;;11.10;99.90;;;;;;4921264;29;20057;-86
2023/01/28 11:50:21;;;;;;;1999.90;999.90;;;10.70;99.90;;;;;;4952719;28;20047;-86
2023/01/28 11:52:53;;;;;;;1999.90;999.90;;;10.70;99.90;;;;;;4952568;28;20125;-86
2023/01/28 11:55:30;;;;;;;1999.90;595.25;;;10.70;99.90;;;;;;4955671;28;20041;-87
2023/01/28 11:58:02;;;;;;;1999.90;999.90;;;10.80;99.90;;;;;;4934009;29;20047;-85
2023/01/28 12:00:51;;;;;;;1999.90;999.90;;;11.50;99.90;;;;;;4938172;29;20061;-85
2023/01/28 12:03:46;;;;;;;1999.90;999.90;;;11.60;99.90;;;;;;4951024;28;20138;-86
2023/01/28 12:06:25;;;;;;;1999.90;999.90;;;11.40;99.90;;;;;;4858561;29;20508;-88
2023/01/28 12:09:06;;;;;;;1999.90;575.55;;;10.30;99.90;;;;;;4938429;28;20050;-84
2023/01/28 12:12:10;;;;;;;1999.90;999.90;;;11.00;99.90;;;;;;4952862;28;20528;-85
2023/01/28 12:14:40;;;;;;;1999.90;999.90;;;11.00;99.90;;;;;;4930731;29;20039;-86
2023/01/28 12:17:27;;;;;;;1999.90;999.90;;;11.10;99.90;;;;;;4929375;29;20054;-85
2023/01/28 12:20:31;;;;;;;1999.90;999.90;;;10.90;99.90;;;;;;4952838;28;20056;-88
2023/01/28 12:23:17;;;;;;;1999.90;999.90;;;11.70;99.90;;;;;;4935809;28;20055;-85
2023/01/28 12:25:49;;;;;;;1999.90;999.90;;;9.10;99.90;;;;;;4930151;29;20050;-86
2023/01/28 12:28:49;;;;;;;1999.90;805.22;;;10.50;99.90;;;;;;4918996;29;20115;-86
2023/01/28 12:31:53;;;;;;;1999.90;999.90;;;10.60;99.90;;;;;;4913041;29;20058;-85
2023/01/28 12:34:37;;;;;;;1999.90;999.90;;;12.00;99.90;;;;;;4909267;29;20048;-87
2023/01/28 12:37:11;;;;;;;1999.90;999.90;;;13.50;99.90;;;;;;4952965;29;20043;-88
2023/01/28 12:40:02;;;;;;;1999.90;999.90;;;10.60;99.90;;;;;;4919734;29;20047;-84
2023/01/28 12:42:41;;;;;;;1999.90;999.90;;;11.20;99.90;;;;;;4928424;29;20114;-86
2023/01/28 12:45:19;;;;;;;1999.90;999.90;;;9.50;99.90;;;;;;4952806;28;20127;-86
2023/01/28 12:48:14;;;;;;;1999.90;999.90;;;10.00;99.90;;;;;;4954848;28;20039;-87
2023/01/28 12:50:53;;;;;;;1999.90;999.90;;;8.80;99.90;;;;;;4940251;29;20062;-85
2023/01/28 12:53:39;;;;;;;1999.90;999.90;;;10.30;99.90;;;;;;4955562;28;20050;-93
2023/01/28 12:56:14;;;;;;;1999.90;999.90;;;10.30;99.90;;;;;;4950989;28;20122;-86